createdAt,value
2019-04-26T00:02:09.934Z,98038.14
2019-04-26T00:04:43.028Z,98075.63
2019-04-26T00:07:14.680Z,98050.25
2019-04-26T00:09:45.608Z,98055.40
2019-04-26T00:12:41.502Z,98048.10
2019-04-26T00:15:40.467Z,98034.17
2019-04-26T00:18:11.830Z,98066.67
2019-04-26T00:20:45.687Z,98041.47
2019-04-26T00:23:16.408Z,98025.88
2019-04-26T00:25:46.735Z,97986.71
2019-04-26T00:28:17.637Z,97960.19
2019-04-26T00:30:47.949Z,98012.25
2019-04-26T00:33:19.346Z,98001.14
2019-04-26T00:35:49.954Z,98011.25
2019-04-26T00:38:20.477Z,98007.94
2019-04-26T00:40:52.951Z,97953.39
2019-04-26T00:43:24.708Z,97922.73
2019-04-26T00:45:56.833Z,97927.20
2019-04-26T00:48:27.476Z,97901.48
2019-04-26T00:50:58.410Z,97856.59
2019-04-26T00:53:31.903Z,97872.00
2019-04-26T00:56:04.129Z,97802.89
2019-04-26T00:58:37.388Z,97749.90
2019-04-26T01:01:07.679Z,97726.73
2019-04-26T01:03:38.107Z,97653.37
2019-04-26T01:06:10.747Z,97649.08
2019-04-26T01:08:41.456Z,97610.70
2019-04-26T01:11:11.741Z,97584.86
2019-04-26T01:13:42.703Z,97631.87
2019-04-26T01:16:13.084Z,97653.05
2019-04-26T01:18:45.177Z,97611.03
2019-04-26T01:21:19.078Z,97556.38
2019-04-26T01:23:51.897Z,97520.00
2019-04-26T01:26:30.194Z,97499.18
2019-04-26T01:29:05.060Z,97446.42
2019-04-26T01:31:40.239Z,97417.84
2019-04-26T01:34:10.857Z,97384.30
2019-04-26T01:36:43.360Z,97358.01
2019-04-26T01:39:17.727Z,97302.86
2019-04-26T01:42:03.110Z,97262.54
2019-04-26T01:44:45.982Z,97190.58
2019-04-26T01:47:16.966Z,97163.66
2019-04-26T01:49:47.679Z,97157.39
2019-04-26T01:52:21.362Z,97127.55
2019-04-26T01:54:52.661Z,97104.77
2019-04-26T01:57:29.343Z,97074.77
2019-04-26T02:00:07.363Z,97070.64
2019-04-26T02:02:46.109Z,97071.47
2019-04-26T02:05:22.570Z,97049.50
2019-04-26T02:07:53.989Z,97051.00
2019-04-26T02:10:25.246Z,97044.89
2019-04-26T02:12:57.331Z,97037.64
2019-04-26T02:15:31.228Z,97033.84
2019-04-26T02:18:05.618Z,97046.70
2019-04-26T02:21:03.411Z,97139.91
2019-04-26T02:23:42.861Z,97138.27
2019-04-26T02:26:35.030Z,97136.12
2019-04-26T02:29:10.662Z,97164.83
2019-04-26T02:31:44.287Z,97181.02
2019-04-26T02:34:15.982Z,97227.72
2019-04-26T02:36:58.098Z,97270.81
2019-04-26T02:39:23.558Z,97298.41
2019-04-26T02:41:57.612Z,97324.00
2019-04-26T02:44:40.021Z,97343.48
2019-04-26T02:47:51.305Z,97363.95
2019-04-26T02:50:32.430Z,97411.23
2019-04-26T02:53:20.662Z,97442.64
2019-04-26T02:56:08.326Z,97482.97
2019-04-26T02:59:03.571Z,97507.79
2019-04-26T03:01:35.955Z,97517.70
2019-04-26T03:04:06.538Z,97540.36
2019-04-26T03:06:41.155Z,97567.81
2019-04-26T03:09:15.065Z,97569.95
2019-04-26T03:11:48.671Z,97656.70
2019-04-26T03:14:38.504Z,97667.78
2019-04-26T03:17:30.726Z,97644.79
2019-04-26T03:20:05.476Z,97637.51
2019-04-26T03:22:54.753Z,97603.56
2019-04-26T03:25:59.918Z,97588.16
2019-04-26T03:28:44.662Z,97631.06
2019-04-26T03:31:29.250Z,97703.20
2019-04-26T03:34:23.517Z,97647.11
2019-04-26T03:37:40.502Z,97629.58
2019-04-26T03:40:28.201Z,97620.94
2019-04-26T03:43:27.458Z,97629.58
2019-04-26T03:46:30.943Z,97640.00
2019-04-26T03:49:24.247Z,97682.36
2019-04-26T03:52:22.093Z,97743.30
2019-04-26T03:54:56.047Z,97735.98
2019-04-26T03:57:40.271Z,97755.70
2019-04-26T04:00:33.299Z,97774.25
2019-04-26T04:03:28.302Z,97874.81
2019-04-26T04:06:01.929Z,97836.19
2019-04-26T04:08:42.883Z,97870.52
2019-04-26T04:11:17.786Z,97906.13
2019-04-26T04:14:14.724Z,97920.71
2019-04-26T04:17:18.474Z,97970.80
2019-04-26T04:20:23.092Z,98031.81
2019-04-26T04:23:01.526Z,98028.16
2019-04-26T04:25:39.322Z,98026.67
2019-04-26T04:29:03.388Z,98087.73
2019-04-26T04:31:41.673Z,98159.91
2019-04-26T04:34:18.321Z,98145.62
2019-04-26T04:36:51.916Z,98170.69
2019-04-26T04:39:31.264Z,98177.66
2019-04-26T04:42:29.197Z,98180.98
2019-04-26T04:45:53.164Z,98166.54
2019-04-26T04:48:50.589Z,98199.06
2019-04-26T04:51:54.005Z,98224.33
2019-04-26T04:54:29.909Z,98269.98
2019-04-26T04:57:18.637Z,98282.77
2019-04-26T05:00:31.106Z,98290.74
2019-04-26T05:03:33.454Z,98319.97
2019-04-26T05:06:33.448Z,98346.75
2019-04-26T05:09:12.717Z,98358.91
2019-04-26T05:12:19.481Z,98468.63
2019-04-26T05:15:00.210Z,98512.52
2019-04-26T05:18:26.528Z,98589.55
2019-04-26T05:21:30.428Z,98588.72
2019-04-26T05:24:19.451Z,98636.98
2019-04-26T05:27:39.102Z,98684.59
2019-04-26T05:30:33.462Z,98747.35
2019-04-26T05:33:35.731Z,98778.49
2019-04-26T05:36:24.415Z,98838.00
2019-04-26T05:39:42.157Z,99082.34
2019-04-26T05:43:09.875Z,99590.09
2019-04-26T05:46:32.985Z,100007.61
2019-04-26T05:50:09.633Z,100144.06
2019-04-26T05:53:03.207Z,100697.80
2019-04-26T05:56:28.191Z,101305.71
2019-04-26T05:59:15.957Z,101720.34
2019-04-26T06:02:38.245Z,102007.41
2019-04-26T06:05:26.926Z,102300.22
2019-04-26T06:08:43.955Z,102081.78
2019-04-26T06:11:24.661Z,102313.72
2019-04-26T06:14:21.497Z,102422.03
2019-04-26T06:17:35.005Z,102237.57
2019-04-26T06:20:54.129Z,102030.11
2019-04-26T06:24:04.644Z,102395.17
2019-04-26T06:27:14.427Z,102708.84
2019-04-26T06:29:54.129Z,102937.39
2019-04-26T06:32:34.929Z,103012.81
2019-04-26T06:35:13.458Z,103099.27
2019-04-26T06:38:19.820Z,102948.22
2019-04-26T06:41:21.873Z,102770.80
2019-04-26T06:44:03.195Z,102558.09
2019-04-26T06:47:24.682Z,103007.64
2019-04-26T06:50:17.993Z,103259.58
2019-04-26T06:52:58.144Z,103407.30
2019-04-26T06:58:38.283Z,103212.39
2019-04-26T07:01:35.365Z,103469.86
2019-04-26T07:04:23.872Z,104022.41
2019-04-26T07:07:32.974Z,104041.20
2019-04-26T07:10:13.342Z,103474.92
2019-04-26T07:12:58.701Z,103714.49
2019-04-26T07:16:22.456Z,104168.72
2019-04-26T07:19:21.449Z,104562.48
2019-04-26T07:22:35.503Z,104934.42
2019-04-26T07:25:32.562Z,104718.92
2019-04-26T07:28:17.825Z,104622.33
2019-04-26T07:31:15.528Z,104503.91
2019-04-26T07:34:28.777Z,104140.35
2019-04-26T07:37:41.078Z,104364.05
2019-04-26T07:40:50.292Z,104252.62
2019-04-26T07:43:45.981Z,104513.25
2019-04-26T07:46:37.332Z,104570.05
2019-04-26T07:49:57.551Z,104567.33
2019-04-26T07:52:54.227Z,104892.03
2019-04-26T07:55:52.011Z,104730.86
2019-04-26T07:59:27.582Z,104358.33
2019-04-26T08:02:41.449Z,104259.69
2019-04-26T08:05:19.791Z,104004.70
2019-04-26T08:07:56.475Z,103903.64
2019-04-26T08:10:37.050Z,103711.78
2019-04-26T08:13:11.381Z,103939.91
2019-04-26T08:16:19.951Z,103658.16
2019-04-26T08:18:58.821Z,103131.03
2019-04-26T08:21:34.828Z,102743.89
2019-04-26T08:24:27.961Z,102591.91
2019-04-26T08:27:22.540Z,102644.34
2019-04-26T08:29:50.488Z,102650.84
2019-04-26T08:32:28.148Z,102540.91
2019-04-26T08:35:16.054Z,102788.87
2019-04-26T08:37:55.397Z,103131.03
2019-04-26T08:40:31.316Z,103562.85
2019-04-26T08:43:15.590Z,103354.27
2019-04-26T08:46:03.060Z,103581.49
2019-04-26T08:48:45.256Z,103855.08
2019-04-26T08:51:20.729Z,104100.42
2019-04-26T08:53:52.957Z,104559.13
2019-04-26T08:56:28.498Z,105097.37
2019-04-26T08:59:03.908Z,104652.17
2019-04-26T09:01:47.110Z,103944.63
2019-04-26T09:04:28.403Z,103540.23
2019-04-26T09:07:04.843Z,103168.22
2019-04-26T09:09:37.143Z,103324.81
2019-04-26T09:12:22.507Z,103383.38
2019-04-26T09:14:52.429Z,103532.00
2019-04-26T09:17:22.851Z,103516.88
2019-04-26T09:19:53.219Z,104015.52
2019-04-26T09:22:34.709Z,105007.81
2019-04-26T09:25:30.253Z,105477.86
2019-04-26T09:28:28.327Z,105078.10
2019-04-26T09:31:19.774Z,103802.77
2019-04-26T09:33:51.404Z,103229.02
2019-04-26T09:36:21.720Z,102964.82
2019-04-26T09:38:53.189Z,102865.52
2019-04-26T09:41:26.587Z,102874.73
2019-04-26T09:44:10.820Z,102950.05
2019-04-26T09:46:48.450Z,103170.47
2019-04-26T09:49:44.442Z,103241.47
2019-04-26T09:52:18.984Z,103163.82
2019-04-26T09:54:49.659Z,103145.09
2019-04-26T09:57:20.330Z,103829.41
2019-04-26T09:59:50.630Z,103881.59
2019-04-26T10:02:22.808Z,104105.55
2019-04-26T10:04:54.641Z,104423.19
2019-04-26T10:07:25.282Z,104656.77
2019-04-26T10:09:56.474Z,104657.64
2019-04-26T10:12:39.193Z,105353.16
2019-04-26T10:15:28.113Z,105214.61
2019-04-26T10:17:59.019Z,105759.19
2019-04-26T10:20:30.819Z,105673.83
2019-04-26T10:23:01.356Z,105009.08
2019-04-26T10:25:33.721Z,104626.06
2019-04-26T10:28:04.120Z,104453.37
2019-04-26T10:30:34.510Z,104632.47
2019-04-26T10:33:05.035Z,104428.94
2019-04-26T10:35:40.631Z,104764.39
2019-04-26T10:38:13.016Z,105593.03
2019-04-26T10:40:43.313Z,106425.69
2019-04-26T10:43:15.305Z,106450.20
2019-04-26T10:45:53.590Z,106138.37
2019-04-26T10:48:17.674Z,106257.84
2019-04-26T10:50:48.269Z,105209.75
2019-04-26T10:53:34.295Z,104462.45
2019-04-26T10:56:33.922Z,104189.45
2019-04-26T10:59:12.903Z,103973.75
2019-04-26T11:01:43.300Z,103647.11
2019-04-26T11:04:15.776Z,103754.62
2019-04-26T11:06:46.170Z,103500.31
2019-04-26T11:09:17.561Z,103570.16
2019-04-26T11:11:47.890Z,103660.70
2019-04-26T11:14:22.355Z,104328.07
2019-04-26T11:16:53.960Z,105367.06
2019-04-26T11:19:26.755Z,105913.57
2019-04-26T11:21:57.804Z,105242.43
2019-04-26T11:24:29.135Z,104650.64
2019-04-26T11:26:59.480Z,104690.91
2019-04-26T11:29:30.945Z,105222.64
2019-04-26T11:32:04.285Z,105537.92
2019-04-26T11:34:34.748Z,105561.84
2019-04-26T11:37:13.494Z,105968.65
2019-04-26T11:39:43.076Z,106896.97
2019-04-26T11:42:13.504Z,106896.97
2019-04-26T11:44:44.646Z,106300.39
2019-04-26T11:47:15.203Z,106513.19
2019-04-26T11:49:49.976Z,106367.96
2019-04-26T11:52:20.257Z,106403.54
2019-04-26T11:54:51.225Z,106204.95
2019-04-26T11:57:22.748Z,106164.52
2019-04-26T11:59:53.077Z,105991.05
2019-04-26T12:02:24.983Z,105994.95
2019-04-26T12:05:22.545Z,106474.55
2019-04-26T12:08:06.520Z,105785.75
2019-04-26T12:10:40.412Z,106111.84
2019-04-26T12:13:11.331Z,106165.77
2019-04-26T12:15:43.771Z,105915.00
2019-04-26T12:18:13.731Z,105011.75
2019-04-26T12:20:44.471Z,104784.34
2019-04-26T12:23:20.505Z,104384.81
2019-04-26T12:25:49.738Z,104389.66
2019-04-26T12:28:20.695Z,103879.32
2019-04-26T12:30:54.136Z,104228.74
2019-04-26T12:33:23.051Z,104068.09
2019-04-26T12:35:57.173Z,103689.67
2019-04-26T12:38:28.439Z,103786.49
2019-04-26T12:40:59.796Z,104338.36
2019-04-26T12:43:30.169Z,104053.63
2019-04-26T12:46:27.082Z,104033.45
2019-04-26T12:48:58.039Z,104321.27
2019-04-26T12:51:29.183Z,104852.81
2019-04-26T12:54:03.767Z,104616.86
2019-04-26T12:56:32.773Z,104154.07
2019-04-26T12:59:07.251Z,104159.28
2019-04-26T13:01:42.654Z,103823.95
2019-04-26T13:04:11.607Z,103895.09
2019-04-26T13:06:47.252Z,103774.52
2019-04-26T13:09:21.985Z,103980.39
2019-04-26T13:12:29.842Z,104299.48
2019-04-26T13:15:35.752Z,104523.62
2019-04-26T13:18:07.274Z,105021.66
2019-04-26T13:20:39.122Z,104929.95
2019-04-26T13:23:10.436Z,104984.47
2019-04-26T13:25:41.259Z,104979.50
2019-04-26T13:28:15.707Z,104579.37
2019-04-26T13:30:44.918Z,104852.78
2019-04-26T13:33:15.243Z,105058.24
2019-04-26T13:36:01.962Z,105459.23
2019-04-26T13:38:18.476Z,105325.63
2019-04-26T13:40:50.871Z,105177.91
2019-04-26T13:43:22.661Z,104951.27
2019-04-26T13:46:11.324Z,105233.87
2019-04-26T13:48:50.292Z,105184.91
2019-04-26T13:51:22.587Z,104901.51
2019-04-26T13:53:54.338Z,104373.05
2019-04-26T13:56:25.330Z,103787.62
2019-04-26T13:58:58.366Z,103414.81
2019-04-26T14:01:28.071Z,103341.06
2019-04-26T14:04:02.519Z,103329.44
2019-04-26T14:06:30.801Z,103502.58
2019-04-26T14:09:03.301Z,103667.24
2019-04-26T14:11:35.443Z,103639.70
2019-04-26T14:14:05.821Z,103712.98
2019-04-26T14:16:36.571Z,103674.28
2019-04-26T14:19:14.874Z,103971.02
2019-04-26T14:21:38.943Z,104215.60
2019-04-26T14:24:34.965Z,104418.12
2019-04-26T14:27:27.334Z,104694.61
2019-04-26T14:29:57.929Z,104698.70
2019-04-26T14:32:30.032Z,103959.88
2019-04-26T14:35:01.862Z,103770.20
2019-04-26T14:37:34.929Z,103567.91
2019-04-26T14:40:16.760Z,103198.83
2019-04-26T14:42:46.043Z,103527.76
2019-04-26T14:45:23.170Z,103471.84
2019-04-26T14:47:47.421Z,103224.73
2019-04-26T14:50:17.851Z,103366.08
2019-04-26T14:52:53.518Z,103836.50
2019-04-26T14:55:24.227Z,103822.41
2019-04-26T14:57:54.841Z,103770.70
2019-04-26T15:00:30.278Z,103684.08
2019-04-26T15:03:12.299Z,103831.69
2019-04-26T15:06:00.892Z,103894.41
2019-04-26T15:08:34.142Z,103645.88
2019-04-26T15:11:05.093Z,103634.27
2019-04-26T15:13:40.554Z,103830.58
2019-04-26T15:16:11.750Z,103843.19
2019-04-26T15:18:42.885Z,103769.25
2019-04-26T15:21:13.378Z,103939.60
2019-04-26T15:23:43.675Z,103815.49
2019-04-26T15:26:14.044Z,103907.07
2019-04-26T15:28:50.040Z,103679.88
2019-04-26T15:31:21.600Z,103326.24
2019-04-26T15:33:52.798Z,103123.66
2019-04-26T15:36:23.533Z,103115.77
2019-04-26T15:38:54.249Z,103067.00
2019-04-26T15:41:34.893Z,102930.91
2019-04-26T15:44:15.460Z,103050.49
2019-04-26T15:46:56.463Z,103126.97
2019-04-26T15:49:39.409Z,103077.46
2019-04-26T15:52:09.757Z,103118.95
2019-04-26T15:54:42.499Z,102788.39
2019-04-26T15:57:13.122Z,102955.17
2019-04-26T15:59:43.517Z,102817.44
2019-04-26T16:02:13.843Z,102766.00
2019-04-26T16:04:47.388Z,102698.89
2019-04-26T16:07:27.817Z,102663.10
2019-04-26T16:09:57.335Z,102591.94
2019-04-26T16:12:27.625Z,102414.84
2019-04-26T16:14:58.998Z,102179.64
2019-04-26T16:17:30.384Z,102138.22
2019-04-26T16:20:04.627Z,102012.42
2019-04-26T16:22:34.958Z,102043.64
2019-04-26T16:25:06.946Z,101981.42
2019-04-26T16:27:40.388Z,101799.41
2019-04-26T16:30:37.432Z,101825.19
2019-04-26T16:33:10.084Z,101716.93
2019-04-26T16:35:42.118Z,101673.06
2019-04-26T16:38:30.257Z,101576.59
2019-04-26T16:41:00.626Z,101489.61
2019-04-26T16:43:37.629Z,101382.69
2019-04-26T16:46:04.126Z,101363.38
2019-04-26T16:48:34.434Z,101271.78
2019-04-26T16:51:08.316Z,101184.73
2019-04-26T16:53:52.124Z,101110.78
2019-04-26T16:56:09.664Z,100969.86
2019-04-26T16:58:44.999Z,100928.36
2019-04-26T17:01:15.200Z,100924.69
2019-04-26T17:03:48.152Z,100857.87
2019-04-26T17:06:18.234Z,100747.27
2019-04-26T17:08:54.204Z,100619.25
2019-04-26T17:11:22.785Z,100543.17
2019-04-26T17:13:56.776Z,100497.75
2019-04-26T17:16:25.687Z,100414.81
2019-04-26T17:18:59.526Z,100340.80
2019-04-26T17:21:34.809Z,100268.01
2019-04-26T17:24:17.820Z,100222.63
2019-04-26T17:26:51.317Z,100159.98
2019-04-26T17:29:21.637Z,100093.16
2019-04-26T17:31:52.271Z,100070.51
2019-04-26T17:34:28.803Z,100021.84
2019-04-26T17:36:55.049Z,99945.33
2019-04-26T17:39:27.216Z,99922.04
2019-04-26T17:41:57.509Z,99859.09
2019-04-26T17:44:28.382Z,99828.60
2019-04-26T17:47:02.020Z,99772.59
2019-04-26T17:49:34.487Z,99727.72
2019-04-26T17:52:03.757Z,99702.59
2019-04-26T17:54:46.040Z,99675.80
2019-04-26T17:57:08.834Z,99611.33
2019-04-26T17:59:45.224Z,99587.21
2019-04-26T18:02:20.562Z,99533.31
2019-04-26T18:04:44.203Z,99522.09
2019-04-26T18:07:37.540Z,99499.52
2019-04-26T18:09:47.438Z,99480.29
2019-04-26T18:12:20.616Z,99436.41
2019-04-26T18:14:51.128Z,99417.05
2019-04-26T18:17:41.013Z,99397.48
2019-04-26T18:20:30.149Z,99354.31
2019-04-26T18:23:05.580Z,99311.19
2019-04-26T18:25:36.418Z,99269.59
2019-04-26T18:28:08.709Z,99218.95
2019-04-26T18:30:40.357Z,99189.73
2019-04-26T18:33:17.588Z,99149.34
2019-04-26T18:35:49.260Z,99124.80
2019-04-26T18:38:20.868Z,99091.55
2019-04-26T18:41:06.567Z,99034.83
2019-04-26T18:43:24.437Z,99001.27
2019-04-26T18:45:58.639Z,99005.47
2019-04-26T18:48:28.660Z,98959.91
2019-04-26T18:50:59.107Z,98956.58
2019-04-26T18:54:05.043Z,98894.05
2019-04-26T18:56:40.496Z,98888.73
2019-04-26T18:59:11.774Z,98826.66
2019-04-26T19:01:42.135Z,98799.34
2019-04-26T19:04:15.529Z,98823.16
2019-04-26T19:06:46.340Z,98780.69
2019-04-26T19:09:18.557Z,98748.34
2019-04-26T19:11:49.923Z,98779.36
2019-04-26T19:14:51.467Z,98757.84
2019-04-26T19:17:33.815Z,98707.38
2019-04-26T19:20:25.823Z,98685.73
2019-04-26T19:22:57.968Z,98641.76
2019-04-26T19:25:40.543Z,98603.31
2019-04-26T19:28:08.227Z,98570.88
2019-04-26T19:30:40.117Z,98533.91
2019-04-26T19:33:16.545Z,98522.60
2019-04-26T19:35:47.233Z,98476.70
2019-04-26T19:38:15.585Z,98446.28
2019-04-26T19:40:48.068Z,98359.32
2019-04-26T19:43:30.178Z,98286.69
2019-04-26T19:46:23.392Z,98251.45
2019-04-26T19:49:15.205Z,98186.17
2019-04-26T19:52:04.843Z,98142.03
2019-04-26T19:54:39.285Z,98093.22
2019-04-26T19:57:23.785Z,98042.13
2019-04-26T19:59:54.316Z,98027.87
2019-04-26T20:02:36.225Z,97997.66
2019-04-26T20:05:02.456Z,97956.54
2019-04-26T20:07:33.381Z,97906.78
2019-04-26T20:10:06.252Z,97889.55
2019-04-26T20:12:38.202Z,97860.89
2019-04-26T20:15:15.356Z,97837.20
2019-04-26T20:17:43.444Z,97845.31
2019-04-26T20:20:20.820Z,97806.72
2019-04-26T20:22:51.540Z,97781.36
2019-04-26T20:25:26.444Z,97753.54
2019-04-26T20:27:59.882Z,97717.78
2019-04-26T20:31:05.899Z,97695.11
2019-04-26T20:33:34.960Z,97701.06
2019-04-26T20:36:05.329Z,97669.42
2019-04-26T20:38:42.582Z,97622.59
2019-04-26T20:41:08.062Z,97605.56
2019-04-26T20:43:45.616Z,97613.34
2019-04-26T20:46:15.219Z,97616.64
2019-04-26T20:48:43.280Z,97632.52
2019-04-26T20:51:14.255Z,97619.79
2019-04-26T20:53:44.949Z,97594.81
2019-04-26T20:56:18.521Z,97556.70
2019-04-26T20:58:57.408Z,97524.79
2019-04-26T21:01:27.008Z,97553.75
2019-04-26T21:03:57.818Z,97547.77
2019-04-26T21:06:29.367Z,97545.95
2019-04-26T21:09:03.359Z,97509.25
2019-04-26T21:11:37.155Z,97488.25
2019-04-26T21:14:12.329Z,97458.63
2019-04-26T21:16:49.475Z,97440.29
2019-04-26T21:19:19.056Z,97395.67
2019-04-26T21:21:51.876Z,97363.30
2019-04-26T21:24:23.700Z,97355.68
2019-04-26T21:27:11.641Z,97326.94
2019-04-26T21:30:21.482Z,97289.30
2019-04-26T21:33:15.369Z,97275.09
2019-04-26T21:36:05.926Z,97240.56
2019-04-26T21:38:51.023Z,97219.60
2019-04-26T21:41:26.334Z,97177.36
2019-04-26T21:43:58.595Z,97173.40
2019-04-26T21:46:29.307Z,97174.39
2019-04-26T21:49:00.894Z,97131.14
2019-04-26T21:51:34.052Z,97100.47
2019-04-26T21:54:07.052Z,97070.78
2019-04-26T21:56:37.619Z,97050.48
2019-04-26T21:59:08.048Z,97037.94
2019-04-26T22:01:38.421Z,97018.65
2019-04-26T22:04:13.276Z,96997.72
2019-04-26T22:06:51.223Z,97001.18
2019-04-26T22:09:35.038Z,96966.39
2019-04-26T22:12:05.204Z,96958.83
2019-04-26T22:14:37.126Z,96941.86
2019-04-26T22:17:16.128Z,96913.16
2019-04-26T22:19:53.463Z,96907.23
2019-04-26T22:22:30.396Z,96899.66
2019-04-26T22:25:01.000Z,96889.45
2019-04-26T22:27:31.584Z,96859.80
2019-04-26T22:30:03.311Z,96846.80
2019-04-26T22:32:35.647Z,96829.97
2019-04-26T22:35:06.220Z,96856.51
2019-04-26T22:37:36.558Z,96832.60
2019-04-26T22:40:10.592Z,96819.26
2019-04-26T22:42:42.143Z,96807.09
2019-04-26T22:45:39.590Z,96802.63
2019-04-26T22:48:19.180Z,96821.90
2019-04-26T22:50:52.018Z,96810.38
2019-04-26T22:53:21.452Z,96802.63
2019-04-26T22:55:53.585Z,96769.91
2019-04-26T22:58:25.606Z,96751.77
2019-04-26T23:00:58.527Z,96768.56
2019-04-26T23:03:28.528Z,96741.25
2019-04-26T23:05:58.914Z,96743.88
2019-04-26T23:08:30.716Z,96715.53
2019-04-26T23:11:08.768Z,96711.11
2019-04-26T23:14:06.357Z,96690.05
2019-04-26T23:17:04.146Z,96689.72
2019-04-26T23:19:33.465Z,96740.10
2019-04-26T23:22:04.604Z,96717.53
2019-04-26T23:24:35.953Z,96673.11
2019-04-26T23:27:06.343Z,96635.58
2019-04-26T23:29:36.669Z,96601.52
2019-04-26T23:32:06.937Z,96591.14
2019-04-26T23:34:37.538Z,96568.48
2019-04-26T23:37:09.256Z,96588.04
2019-04-26T23:39:44.471Z,96547.92
2019-04-26T23:42:17.561Z,96532.97
2019-04-26T23:44:48.437Z,96512.06
2019-04-26T23:47:23.729Z,96499.10
2019-04-26T23:49:56.990Z,96467.88
2019-04-26T23:52:26.589Z,96498.28
2019-04-26T23:54:59.324Z,96539.38
2019-04-26T23:57:31.366Z,96499.42
